sensor_id;sensor_type;location;lat;lon;timestamp;temperature;humidity
19248;DHT22;9758;48.640;8.148;2023-09-19T00:01:32;20.60;53.00
19248;DHT22;9758;48.640;8.148;2023-09-19T00:04:00;20.50;53.00
19248;DHT22;9758;48.640;8.148;2023-09-19T00:06:28;20.60;52.90
19248;DHT22;9758;48.640;8.148;2023-09-19T00:08:57;20.60;53.00
19248;DHT22;9758;48.640;8.148;2023-09-19T00:11:25;20.60;53.10
19248;DHT22;9758;48.640;8.148;2023-09-19T00:13:52;20.60;53.10
19248;DHT22;9758;48.640;8.148;2023-09-19T00:16:20;20.50;53.10
19248;DHT22;9758;48.640;8.148;2023-09-19T00:18:47;20.60;53.20
19248;DHT22;9758;48.640;8.148;2023-09-19T00:21:15;20.60;53.20
19248;DHT22;9758;48.640;8.148;2023-09-19T00:23:42;20.50;53.20
19248;DHT22;9758;48.640;8.148;2023-09-19T00:26:09;20.60;53.30
19248;DHT22;9758;48.640;8.148;2023-09-19T00:28:36;20.60;53.30
19248;DHT22;9758;48.640;8.148;2023-09-19T00:31:02;20.50;53.30
19248;DHT22;9758;48.640;8.148;2023-09-19T00:33:30;20.50;53.20
19248;DHT22;9758;48.640;8.148;2023-09-19T00:35:57;20.50;53.40
19248;DHT22;9758;48.640;8.148;2023-09-19T00:38:26;20.50;53.30
19248;DHT22;9758;48.640;8.148;2023-09-19T00:40:54;20.50;53.30
19248;DHT22;9758;48.640;8.148;2023-09-19T00:43:22;20.40;53.30
19248;DHT22;9758;48.640;8.148;2023-09-19T00:45:51;20.50;53.50
19248;DHT22;9758;48.640;8.148;2023-09-19T00:48:19;20.40;53.20
19248;DHT22;9758;48.640;8.148;2023-09-19T00:50:47;20.40;53.40
19248;DHT22;9758;48.640;8.148;2023-09-19T00:53:18;20.40;53.30
19248;DHT22;9758;48.640;8.148;2023-09-19T00:55:47;20.40;53.30
19248;DHT22;9758;48.640;8.148;2023-09-19T00:58:16;20.40;53.30
19248;DHT22;9758;48.640;8.148;2023-09-19T01:00:43;20.40;53.20
19248;DHT22;9758;48.640;8.148;2023-09-19T01:03:10;20.40;53.30
19248;DHT22;9758;48.640;8.148;2023-09-19T01:05:38;20.30;53.30
19248;DHT22;9758;48.640;8.148;2023-09-19T01:08:05;20.30;53.30
19248;DHT22;9758;48.640;8.148;2023-09-19T01:10:33;20.30;53.30
19248;DHT22;9758;48.640;8.148;2023-09-19T01:13:08;20.40;53.50
19248;DHT22;9758;48.640;8.148;2023-09-19T01:15:45;20.30;53.50
19248;DHT22;9758;48.640;8.148;2023-09-19T01:18:35;20.40;53.40
19248;DHT22;9758;48.640;8.148;2023-09-19T01:21:10;20.40;53.50
19248;DHT22;9758;48.640;8.148;2023-09-19T01:26:45;20.40;53.40
19248;DHT22;9758;48.640;8.148;2023-09-19T01:29:26;20.40;53.30
19248;DHT22;9758;48.640;8.148;2023-09-19T01:32:06;20.40;53.40
19248;DHT22;9758;48.640;8.148;2023-09-19T01:34:45;20.40;53.40
19248;DHT22;9758;48.640;8.148;2023-09-19T01:37:14;20.40;53.50
19248;DHT22;9758;48.640;8.148;2023-09-19T01:39:44;20.40;53.60
19248;DHT22;9758;48.640;8.148;2023-09-19T01:42:21;20.40;53.60
19248;DHT22;9758;48.640;8.148;2023-09-19T01:44:55;20.40;53.50
19248;DHT22;9758;48.640;8.148;2023-09-19T01:47:32;20.40;53.50
19248;DHT22;9758;48.640;8.148;2023-09-19T01:50:07;20.40;53.40
19248;DHT22;9758;48.640;8.148;2023-09-19T01:52:42;20.50;53.50
19248;DHT22;9758;48.640;8.148;2023-09-19T01:55:14;20.50;53.40
19248;DHT22;9758;48.640;8.148;2023-09-19T01:57:53;20.50;53.40
19248;DHT22;9758;48.640;8.148;2023-09-19T02:00:23;20.50;53.60
19248;DHT22;9758;48.640;8.148;2023-09-19T02:02:52;20.50;53.40
19248;DHT22;9758;48.640;8.148;2023-09-19T02:05:24;20.50;53.50
19248;DHT22;9758;48.640;8.148;2023-09-19T02:07:52;20.50;53.50
19248;DHT22;9758;48.640;8.148;2023-09-19T02:10:21;20.50;53.50
19248;DHT22;9758;48.640;8.148;2023-09-19T02:12:48;20.50;53.50
19248;DHT22;9758;48.640;8.148;2023-09-19T02:15:16;20.50;53.40
19248;DHT22;9758;48.640;8.148;2023-09-19T02:17:43;20.60;53.40
19248;DHT22;9758;48.640;8.148;2023-09-19T02:20:13;20.60;53.40
19248;DHT22;9758;48.640;8.148;2023-09-19T02:22:41;20.60;53.40
19248;DHT22;9758;48.640;8.148;2023-09-19T02:25:07;20.60;53.40
19248;DHT22;9758;48.640;8.148;2023-09-19T02:27:34;20.60;53.40
19248;DHT22;9758;48.640;8.148;2023-09-19T02:30:01;20.60;53.40
19248;DHT22;9758;48.640;8.148;2023-09-19T02:32:29;20.60;53.50
19248;DHT22;9758;48.640;8.148;2023-09-19T02:34:56;20.60;53.50
19248;DHT22;9758;48.640;8.148;2023-09-19T02:37:25;20.60;53.50
19248;DHT22;9758;48.640;8.148;2023-09-19T02:39:52;20.60;53.50
19248;DHT22;9758;48.640;8.148;2023-09-19T02:42:19;20.60;53.40
19248;DHT22;9758;48.640;8.148;2023-09-19T02:44:46;20.60;53.40
19248;DHT22;9758;48.640;8.148;2023-09-19T02:47:13;20.60;53.60
19248;DHT22;9758;48.640;8.148;2023-09-19T02:49:42;20.60;53.60
19248;DHT22;9758;48.640;8.148;2023-09-19T02:52:08;20.60;53.60
19248;DHT22;9758;48.640;8.148;2023-09-19T02:54:38;20.50;53.40
19248;DHT22;9758;48.640;8.148;2023-09-19T02:57:04;20.50;53.50
19248;DHT22;9758;48.640;8.148;2023-09-19T02:59:33;20.50;53.70
19248;DHT22;9758;48.640;8.148;2023-09-19T03:02:02;20.40;53.70
19248;DHT22;9758;48.640;8.148;2023-09-19T03:04:30;20.40;53.80
19248;DHT22;9758;48.640;8.148;2023-09-19T03:06:58;20.40;53.80
19248;DHT22;9758;48.640;8.148;2023-09-19T03:09:26;20.40;53.80
19248;DHT22;9758;48.640;8.148;2023-09-19T03:11:54;20.50;53.90
19248;DHT22;9758;48.640;8.148;2023-09-19T03:14:21;20.50;53.80
19248;DHT22;9758;48.640;8.148;2023-09-19T03:16:48;20.50;54.40
19248;DHT22;9758;48.640;8.148;2023-09-19T03:19:16;20.50;53.60
19248;DHT22;9758;48.640;8.148;2023-09-19T03:21:42;20.50;53.80
19248;DHT22;9758;48.640;8.148;2023-09-19T03:24:09;20.50;53.70
19248;DHT22;9758;48.640;8.148;2023-09-19T03:26:37;20.50;53.70
19248;DHT22;9758;48.640;8.148;2023-09-19T03:29:05;20.50;53.70
19248;DHT22;9758;48.640;8.148;2023-09-19T03:31:33;20.40;53.70
19248;DHT22;9758;48.640;8.148;2023-09-19T03:34:02;20.40;53.90
19248;DHT22;9758;48.640;8.148;2023-09-19T03:36:30;20.40;53.80
19248;DHT22;9758;48.640;8.148;2023-09-19T03:38:56;20.40;53.80
19248;DHT22;9758;48.640;8.148;2023-09-19T03:41:23;20.30;53.90
19248;DHT22;9758;48.640;8.148;2023-09-19T03:43:50;20.30;54.00
19248;DHT22;9758;48.640;8.148;2023-09-19T03:46:18;20.30;54.00
19248;DHT22;9758;48.640;8.148;2023-09-19T03:48:45;20.30;54.00
19248;DHT22;9758;48.640;8.148;2023-09-19T03:51:12;20.20;54.00
19248;DHT22;9758;48.640;8.148;2023-09-19T03:53:38;20.20;54.00
19248;DHT22;9758;48.640;8.148;2023-09-19T03:56:05;20.20;54.10
19248;DHT22;9758;48.640;8.148;2023-09-19T03:58:33;20.10;54.10
19248;DHT22;9758;48.640;8.148;2023-09-19T04:01:04;20.20;54.10
19248;DHT22;9758;48.640;8.148;2023-09-19T04:03:33;20.10;54.10
19248;DHT22;9758;48.640;8.148;2023-09-19T04:06:11;20.00;54.20
19248;DHT22;9758;48.640;8.148;2023-09-19T04:08:38;20.00;54.30
19248;DHT22;9758;48.640;8.148;2023-09-19T04:11:05;19.90;54.50
19248;DHT22;9758;48.640;8.148;2023-09-19T04:13:31;20.00;54.60
19248;DHT22;9758;48.640;8.148;2023-09-19T04:15:58;19.90;54.50
19248;DHT22;9758;48.640;8.148;2023-09-19T04:18:25;20.00;54.60
19248;DHT22;9758;48.640;8.148;2023-09-19T04:20:53;20.00;54.90
19248;DHT22;9758;48.640;8.148;2023-09-19T04:23:21;19.90;54.50
19248;DHT22;9758;48.640;8.148;2023-09-19T04:25:48;19.90;54.60
19248;DHT22;9758;48.640;8.148;2023-09-19T04:28:16;19.90;54.60
19248;DHT22;9758;48.640;8.148;2023-09-19T04:30:43;19.90;54.60
19248;DHT22;9758;48.640;8.148;2023-09-19T04:33:09;19.90;54.70
19248;DHT22;9758;48.640;8.148;2023-09-19T04:35:37;19.90;54.60
19248;DHT22;9758;48.640;8.148;2023-09-19T04:38:05;19.90;54.60
19248;DHT22;9758;48.640;8.148;2023-09-19T04:40:32;19.90;54.60
19248;DHT22;9758;48.640;8.148;2023-09-19T04:42:59;19.90;54.70
19248;DHT22;9758;48.640;8.148;2023-09-19T04:45:27;19.80;54.80
19248;DHT22;9758;48.640;8.148;2023-09-19T04:47:54;19.70;54.90
19248;DHT22;9758;48.640;8.148;2023-09-19T04:50:21;19.70;55.00
19248;DHT22;9758;48.640;8.148;2023-09-19T04:52:49;19.70;55.00
19248;DHT22;9758;48.640;8.148;2023-09-19T04:55:18;19.60;55.00
19248;DHT22;9758;48.640;8.148;2023-09-19T04:57:47;19.60;55.00
19248;DHT22;9758;48.640;8.148;2023-09-19T05:00:15;19.60;54.90
19248;DHT22;9758;48.640;8.148;2023-09-19T05:02:42;19.60;55.00
19248;DHT22;9758;48.640;8.148;2023-09-19T05:05:10;19.60;55.00
19248;DHT22;9758;48.640;8.148;2023-09-19T05:07:38;19.60;55.00
19248;DHT22;9758;48.640;8.148;2023-09-19T05:10:06;19.50;54.90
19248;DHT22;9758;48.640;8.148;2023-09-19T05:12:35;19.50;55.00
19248;DHT22;9758;48.640;8.148;2023-09-19T05:15:02;19.50;55.10
19248;DHT22;9758;48.640;8.148;2023-09-19T05:17:30;19.50;55.10
19248;DHT22;9758;48.640;8.148;2023-09-19T05:19:58;19.50;55.10
19248;DHT22;9758;48.640;8.148;2023-09-19T05:22:26;19.40;55.20
19248;DHT22;9758;48.640;8.148;2023-09-19T05:25:03;19.40;55.20
19248;DHT22;9758;48.640;8.148;2023-09-19T05:27:30;19.40;55.30
19248;DHT22;9758;48.640;8.148;2023-09-19T05:30:00;19.40;55.30
19248;DHT22;9758;48.640;8.148;2023-09-19T05:32:27;19.40;55.40
19248;DHT22;9758;48.640;8.148;2023-09-19T05:34:54;19.50;55.70
19248;DHT22;9758;48.640;8.148;2023-09-19T05:37:21;19.50;55.40
19248;DHT22;9758;48.640;8.148;2023-09-19T05:39:48;19.60;55.40
19248;DHT22;9758;48.640;8.148;2023-09-19T05:42:15;19.60;55.40
19248;DHT22;9758;48.640;8.148;2023-09-19T05:44:42;19.60;55.20
19248;DHT22;9758;48.640;8.148;2023-09-19T05:47:10;19.70;55.30
19248;DHT22;9758;48.640;8.148;2023-09-19T05:49:38;19.60;55.20
19248;DHT22;9758;48.640;8.148;2023-09-19T05:52:06;19.70;55.20
19248;DHT22;9758;48.640;8.148;2023-09-19T05:54:33;19.70;55.10
19248;DHT22;9758;48.640;8.148;2023-09-19T05:57:00;19.70;55.20
19248;DHT22;9758;48.640;8.148;2023-09-19T05:59:27;19.70;55.10
19248;DHT22;9758;48.640;8.148;2023-09-19T06:01:54;19.70;55.10
19248;DHT22;9758;48.640;8.148;2023-09-19T06:04:22;19.70;55.20
19248;DHT22;9758;48.640;8.148;2023-09-19T06:06:49;19.70;55.20
19248;DHT22;9758;48.640;8.148;2023-09-19T06:09:16;19.70;55.10
19248;DHT22;9758;48.640;8.148;2023-09-19T06:11:44;19.80;55.10
19248;DHT22;9758;48.640;8.148;2023-09-19T06:14:11;19.80;55.10
19248;DHT22;9758;48.640;8.148;2023-09-19T06:16:37;19.80;55.10
19248;DHT22;9758;48.640;8.148;2023-09-19T06:19:06;19.80;55.00
19248;DHT22;9758;48.640;8.148;2023-09-19T06:21:35;19.80;55.00
19248;DHT22;9758;48.640;8.148;2023-09-19T06:24:03;19.80;55.00
19248;DHT22;9758;48.640;8.148;2023-09-19T06:26:30;19.90;55.00
19248;DHT22;9758;48.640;8.148;2023-09-19T06:28:57;19.90;55.00
19248;DHT22;9758;48.640;8.148;2023-09-19T06:31:25;19.90;55.00
19248;DHT22;9758;48.640;8.148;2023-09-19T06:33:52;19.80;55.00
19248;DHT22;9758;48.640;8.148;2023-09-19T06:36:18;19.80;55.00
19248;DHT22;9758;48.640;8.148;2023-09-19T06:38:47;19.80;55.00
19248;DHT22;9758;48.640;8.148;2023-09-19T06:41:14;19.80;55.00
19248;DHT22;9758;48.640;8.148;2023-09-19T06:43:43;19.80;55.00
19248;DHT22;9758;48.640;8.148;2023-09-19T06:46:10;19.80;55.00
19248;DHT22;9758;48.640;8.148;2023-09-19T06:48:38;19.80;55.00
19248;DHT22;9758;48.640;8.148;2023-09-19T06:51:05;19.90;55.00
19248;DHT22;9758;48.640;8.148;2023-09-19T06:53:31;19.90;55.10
19248;DHT22;9758;48.640;8.148;2023-09-19T06:56:01;19.90;55.00
19248;DHT22;9758;48.640;8.148;2023-09-19T06:58:28;19.90;55.00
19248;DHT22;9758;48.640;8.148;2023-09-19T07:00:55;19.90;55.00
19248;DHT22;9758;48.640;8.148;2023-09-19T07:03:22;19.90;55.00
19248;DHT22;9758;48.640;8.148;2023-09-19T07:05:51;20.00;55.10
19248;DHT22;9758;48.640;8.148;2023-09-19T07:08:21;20.00;55.00
19248;DHT22;9758;48.640;8.148;2023-09-19T07:10:48;20.00;54.80
19248;DHT22;9758;48.640;8.148;2023-09-19T07:13:16;20.10;54.90
19248;DHT22;9758;48.640;8.148;2023-09-19T07:15:43;20.10;54.90
19248;DHT22;9758;48.640;8.148;2023-09-19T07:18:13;20.10;54.90
19248;DHT22;9758;48.640;8.148;2023-09-19T07:20:42;20.10;54.80
19248;DHT22;9758;48.640;8.148;2023-09-19T07:23:11;20.10;54.80
19248;DHT22;9758;48.640;8.148;2023-09-19T07:25:39;20.10;54.70
19248;DHT22;9758;48.640;8.148;2023-09-19T07:28:06;20.10;54.80
19248;DHT22;9758;48.640;8.148;2023-09-19T07:30:36;20.20;54.80
19248;DHT22;9758;48.640;8.148;2023-09-19T07:33:04;20.20;54.80
19248;DHT22;9758;48.640;8.148;2023-09-19T07:35:31;20.20;55.00
19248;DHT22;9758;48.640;8.148;2023-09-19T07:37:58;20.30;55.00
19248;DHT22;9758;48.640;8.148;2023-09-19T07:40:26;20.40;55.00
19248;DHT22;9758;48.640;8.148;2023-09-19T07:42:54;20.50;54.90
19248;DHT22;9758;48.640;8.148;2023-09-19T07:45:21;20.60;54.90
19248;DHT22;9758;48.640;8.148;2023-09-19T07:47:51;20.60;54.70
19248;DHT22;9758;48.640;8.148;2023-09-19T07:50:18;20.70;54.70
19248;DHT22;9758;48.640;8.148;2023-09-19T07:52:46;20.80;54.70
19248;DHT22;9758;48.640;8.148;2023-09-19T07:55:13;20.80;55.20
19248;DHT22;9758;48.640;8.148;2023-09-19T07:57:43;20.90;54.70
19248;DHT22;9758;48.640;8.148;2023-09-19T08:00:10;20.90;54.60
19248;DHT22;9758;48.640;8.148;2023-09-19T08:02:39;21.00;54.60
19248;DHT22;9758;48.640;8.148;2023-09-19T08:05:09;21.10;54.50
19248;DHT22;9758;48.640;8.148;2023-09-19T08:07:37;21.10;54.40
19248;DHT22;9758;48.640;8.148;2023-09-19T08:10:04;21.20;54.40
19248;DHT22;9758;48.640;8.148;2023-09-19T08:12:33;21.30;54.40
19248;DHT22;9758;48.640;8.148;2023-09-19T08:15:01;21.30;54.30
19248;DHT22;9758;48.640;8.148;2023-09-19T08:17:28;21.40;54.30
19248;DHT22;9758;48.640;8.148;2023-09-19T08:19:54;21.40;54.20
19248;DHT22;9758;48.640;8.148;2023-09-19T08:22:22;21.60;54.20
19248;DHT22;9758;48.640;8.148;2023-09-19T08:24:50;21.60;54.20
19248;DHT22;9758;48.640;8.148;2023-09-19T08:27:16;21.70;54.10
19248;DHT22;9758;48.640;8.148;2023-09-19T08:29:45;21.80;54.00
19248;DHT22;9758;48.640;8.148;2023-09-19T08:32:22;21.80;53.80
19248;DHT22;9758;48.640;8.148;2023-09-19T08:34:49;21.90;53.80
19248;DHT22;9758;48.640;8.148;2023-09-19T08:37:16;21.90;53.90
19248;DHT22;9758;48.640;8.148;2023-09-19T08:39:45;22.00;53.90
19248;DHT22;9758;48.640;8.148;2023-09-19T08:42:11;22.00;53.70
19248;DHT22;9758;48.640;8.148;2023-09-19T08:44:39;22.00;53.60
19248;DHT22;9758;48.640;8.148;2023-09-19T08:47:10;22.00;53.60
19248;DHT22;9758;48.640;8.148;2023-09-19T08:49:44;22.00;53.60
19248;DHT22;9758;48.640;8.148;2023-09-19T08:52:20;21.90;53.60
19248;DHT22;9758;48.640;8.148;2023-09-19T08:54:52;21.90;53.60
19248;DHT22;9758;48.640;8.148;2023-09-19T08:57:19;21.90;53.70
19248;DHT22;9758;48.640;8.148;2023-09-19T08:59:48;21.90;53.70
19248;DHT22;9758;48.640;8.148;2023-09-19T09:02:16;22.00;53.70
19248;DHT22;9758;48.640;8.148;2023-09-19T09:04:45;22.00;53.70
19248;DHT22;9758;48.640;8.148;2023-09-19T09:07:13;22.00;53.60
19248;DHT22;9758;48.640;8.148;2023-09-19T09:09:40;22.10;53.50
19248;DHT22;9758;48.640;8.148;2023-09-19T09:12:32;22.10;53.40
19248;DHT22;9758;48.640;8.148;2023-09-19T09:15:00;22.10;53.50
19248;DHT22;9758;48.640;8.148;2023-09-19T09:17:29;22.00;53.40
19248;DHT22;9758;48.640;8.148;2023-09-19T09:19:56;22.10;53.40
19248;DHT22;9758;48.640;8.148;2023-09-19T09:22:24;22.10;53.50
19248;DHT22;9758;48.640;8.148;2023-09-19T09:24:51;22.20;53.40
19248;DHT22;9758;48.640;8.148;2023-09-19T09:27:19;22.30;53.40
19248;DHT22;9758;48.640;8.148;2023-09-19T09:29:52;22.30;53.20
19248;DHT22;9758;48.640;8.148;2023-09-19T09:32:22;22.40;53.10
19248;DHT22;9758;48.640;8.148;2023-09-19T09:34:51;22.40;52.90
19248;DHT22;9758;48.640;8.148;2023-09-19T09:37:19;22.40;52.90
19248;DHT22;9758;48.640;8.148;2023-09-19T09:39:50;22.40;52.60
19248;DHT22;9758;48.640;8.148;2023-09-19T09:42:31;22.40;52.50
19248;DHT22;9758;48.640;8.148;2023-09-19T09:45:15;22.40;52.50
19248;DHT22;9758;48.640;8.148;2023-09-19T09:47:44;22.40;52.60
19248;DHT22;9758;48.640;8.148;2023-09-19T09:50:26;22.40;52.50
19248;DHT22;9758;48.640;8.148;2023-09-19T09:53:19;22.40;52.50
19248;DHT22;9758;48.640;8.148;2023-09-19T09:56:00;22.40;52.20
19248;DHT22;9758;48.640;8.148;2023-09-19T09:58:28;22.40;52.20
19248;DHT22;9758;48.640;8.148;2023-09-19T10:00:59;22.40;52.00
19248;DHT22;9758;48.640;8.148;2023-09-19T10:03:32;22.30;51.70
19248;DHT22;9758;48.640;8.148;2023-09-19T10:06:04;22.30;52.10
19248;DHT22;9758;48.640;8.148;2023-09-19T10:09:04;22.30;52.10
19248;DHT22;9758;48.640;8.148;2023-09-19T10:11:43;22.20;51.60
19248;DHT22;9758;48.640;8.148;2023-09-19T10:14:12;22.20;52.20
19248;DHT22;9758;48.640;8.148;2023-09-19T10:16:47;22.30;52.30
19248;DHT22;9758;48.640;8.148;2023-09-19T10:19:29;22.40;52.30
19248;DHT22;9758;48.640;8.148;2023-09-19T10:22:01;22.50;51.90
19248;DHT22;9758;48.640;8.148;2023-09-19T10:24:30;22.50;51.90
19248;DHT22;9758;48.640;8.148;2023-09-19T10:26:57;22.60;51.90
19248;DHT22;9758;48.640;8.148;2023-09-19T10:29:28;22.60;51.80
19248;DHT22;9758;48.640;8.148;2023-09-19T10:31:58;22.70;51.70
19248;DHT22;9758;48.640;8.148;2023-09-19T10:34:26;22.80;51.80
19248;DHT22;9758;48.640;8.148;2023-09-19T10:36:54;22.80;51.70
19248;DHT22;9758;48.640;8.148;2023-09-19T10:39:21;22.90;51.70
19248;DHT22;9758;48.640;8.148;2023-09-19T10:41:51;22.90;51.40
19248;DHT22;9758;48.640;8.148;2023-09-19T10:44:23;22.90;51.50
19248;DHT22;9758;48.640;8.148;2023-09-19T10:46:51;23.00;51.60
19248;DHT22;9758;48.640;8.148;2023-09-19T10:49:21;23.10;51.40
19248;DHT22;9758;48.640;8.148;2023-09-19T10:51:49;23.20;51.40
19248;DHT22;9758;48.640;8.148;2023-09-19T10:54:22;23.30;51.30
19248;DHT22;9758;48.640;8.148;2023-09-19T10:56:53;23.50;51.30
19248;DHT22;9758;48.640;8.148;2023-09-19T10:59:22;23.60;51.20
19248;DHT22;9758;48.640;8.148;2023-09-19T11:01:51;23.70;50.90
19248;DHT22;9758;48.640;8.148;2023-09-19T11:04:24;23.70;50.80
19248;DHT22;9758;48.640;8.148;2023-09-19T11:07:04;23.80;50.60
19248;DHT22;9758;48.640;8.148;2023-09-19T11:09:48;23.80;50.10
19248;DHT22;9758;48.640;8.148;2023-09-19T11:12:50;23.70;50.40
19248;DHT22;9758;48.640;8.148;2023-09-19T11:18:52;23.60;50.30
19248;DHT22;9758;48.640;8.148;2023-09-19T11:24:32;23.60;50.20
19248;DHT22;9758;48.640;8.148;2023-09-19T11:27:14;23.60;50.30
19248;DHT22;9758;48.640;8.148;2023-09-19T11:29:43;23.50;49.80
19248;DHT22;9758;48.640;8.148;2023-09-19T11:32:10;23.40;50.20
19248;DHT22;9758;48.640;8.148;2023-09-19T11:34:42;23.40;50.30
19248;DHT22;9758;48.640;8.148;2023-09-19T11:40:34;23.40;50.30
19248;DHT22;9758;48.640;8.148;2023-09-19T11:43:28;23.50;50.40
19248;DHT22;9758;48.640;8.148;2023-09-19T11:46:08;23.60;50.30
19248;DHT22;9758;48.640;8.148;2023-09-19T11:48:35;23.70;50.30
19248;DHT22;9758;48.640;8.148;2023-09-19T11:51:13;23.70;50.30
19248;DHT22;9758;48.640;8.148;2023-09-19T11:53:46;23.70;50.30
19248;DHT22;9758;48.640;8.148;2023-09-19T11:56:17;23.90;50.00
19248;DHT22;9758;48.640;8.148;2023-09-19T11:58:46;24.00;50.00
19248;DHT22;9758;48.640;8.148;2023-09-19T12:01:19;24.00;49.90
19248;DHT22;9758;48.640;8.148;2023-09-19T12:03:53;24.00;49.30
19248;DHT22;9758;48.640;8.148;2023-09-19T12:06:20;24.00;50.20
19248;DHT22;9758;48.640;8.148;2023-09-19T12:08:47;24.00;49.50
19248;DHT22;9758;48.640;8.148;2023-09-19T12:11:17;24.10;49.80
19248;DHT22;9758;48.640;8.148;2023-09-19T12:13:47;24.20;49.60
19248;DHT22;9758;48.640;8.148;2023-09-19T12:16:15;24.30;49.40
19248;DHT22;9758;48.640;8.148;2023-09-19T12:18:42;24.30;49.30
19248;DHT22;9758;48.640;8.148;2023-09-19T12:21:24;24.40;49.10
19248;DHT22;9758;48.640;8.148;2023-09-19T12:24:05;24.40;49.40
19248;DHT22;9758;48.640;8.148;2023-09-19T12:26:42;24.40;49.00
19248;DHT22;9758;48.640;8.148;2023-09-19T12:29:13;24.40;48.90
19248;DHT22;9758;48.640;8.148;2023-09-19T12:31:52;24.40;49.10
19248;DHT22;9758;48.640;8.148;2023-09-19T12:34:24;24.40;49.10
19248;DHT22;9758;48.640;8.148;2023-09-19T12:37:05;24.50;49.10
19248;DHT22;9758;48.640;8.148;2023-09-19T12:39:37;24.60;49.10
19248;DHT22;9758;48.640;8.148;2023-09-19T12:42:08;24.70;49.10
19248;DHT22;9758;48.640;8.148;2023-09-19T12:44:36;24.70;48.70
19248;DHT22;9758;48.640;8.148;2023-09-19T12:47:14;24.80;48.80
19248;DHT22;9758;48.640;8.148;2023-09-19T12:50:10;24.80;48.70
19248;DHT22;9758;48.640;8.148;2023-09-19T12:52:43;24.90;48.60
19248;DHT22;9758;48.640;8.148;2023-09-19T12:55:26;25.00;48.10
19248;DHT22;9758;48.640;8.148;2023-09-19T12:58:09;25.00;48.40
19248;DHT22;9758;48.640;8.148;2023-09-19T13:00:39;25.00;48.50
19248;DHT22;9758;48.640;8.148;2023-09-19T13:03:14;25.10;48.20
19248;DHT22;9758;48.640;8.148;2023-09-19T13:05:51;25.10;47.70
19248;DHT22;9758;48.640;8.148;2023-09-19T13:08:21;25.10;47.40
19248;DHT22;9758;48.640;8.148;2023-09-19T13:11:09;25.10;47.90
19248;DHT22;9758;48.640;8.148;2023-09-19T13:13:41;25.30;47.10
19248;DHT22;9758;48.640;8.148;2023-09-19T13:16:09;25.30;47.80
19248;DHT22;9758;48.640;8.148;2023-09-19T13:18:44;25.40;47.40
19248;DHT22;9758;48.640;8.148;2023-09-19T13:21:12;25.40;47.40
19248;DHT22;9758;48.640;8.148;2023-09-19T13:23:50;25.40;47.00
19248;DHT22;9758;48.640;8.148;2023-09-19T13:26:17;25.30;47.30
19248;DHT22;9758;48.640;8.148;2023-09-19T13:28:45;25.40;47.00
19248;DHT22;9758;48.640;8.148;2023-09-19T13:31:13;25.40;47.00
19248;DHT22;9758;48.640;8.148;2023-09-19T13:33:43;25.40;47.40
19248;DHT22;9758;48.640;8.148;2023-09-19T13:36:10;25.50;47.30
19248;DHT22;9758;48.640;8.148;2023-09-19T13:38:38;25.60;47.20
19248;DHT22;9758;48.640;8.148;2023-09-19T13:41:05;25.60;47.20
19248;DHT22;9758;48.640;8.148;2023-09-19T13:43:32;25.70;47.20
19248;DHT22;9758;48.640;8.148;2023-09-19T13:46:00;25.80;47.00
19248;DHT22;9758;48.640;8.148;2023-09-19T13:48:28;25.90;47.00
19248;DHT22;9758;48.640;8.148;2023-09-19T13:50:55;26.00;47.00
19248;DHT22;9758;48.640;8.148;2023-09-19T13:53:28;26.10;47.00
19248;DHT22;9758;48.640;8.148;2023-09-19T13:55:54;26.10;46.80
19248;DHT22;9758;48.640;8.148;2023-09-19T13:58:21;26.10;46.60
19248;DHT22;9758;48.640;8.148;2023-09-19T14:00:49;26.10;46.50
19248;DHT22;9758;48.640;8.148;2023-09-19T14:03:17;26.00;46.40
19248;DHT22;9758;48.640;8.148;2023-09-19T14:05:46;25.90;46.60
19248;DHT22;9758;48.640;8.148;2023-09-19T14:08:13;25.90;46.60
19248;DHT22;9758;48.640;8.148;2023-09-19T14:10:40;25.90;46.60
19248;DHT22;9758;48.640;8.148;2023-09-19T14:13:06;25.90;46.90
19248;DHT22;9758;48.640;8.148;2023-09-19T14:15:36;25.90;46.80
19248;DHT22;9758;48.640;8.148;2023-09-19T14:18:04;25.90;46.70
19248;DHT22;9758;48.640;8.148;2023-09-19T14:20:32;25.90;46.70
19248;DHT22;9758;48.640;8.148;2023-09-19T14:22:59;25.90;46.70
19248;DHT22;9758;48.640;8.148;2023-09-19T14:25:26;26.00;46.90
19248;DHT22;9758;48.640;8.148;2023-09-19T14:27:54;26.00;46.70
19248;DHT22;9758;48.640;8.148;2023-09-19T14:30:21;26.10;46.40
19248;DHT22;9758;48.640;8.148;2023-09-19T14:32:48;26.10;46.60
19248;DHT22;9758;48.640;8.148;2023-09-19T14:35:15;26.10;46.20
19248;DHT22;9758;48.640;8.148;2023-09-19T14:37:43;26.10;46.30
19248;DHT22;9758;48.640;8.148;2023-09-19T14:40:11;26.00;46.30
19248;DHT22;9758;48.640;8.148;2023-09-19T14:42:40;26.00;46.30
19248;DHT22;9758;48.640;8.148;2023-09-19T14:45:10;26.10;46.50
19248;DHT22;9758;48.640;8.148;2023-09-19T14:47:37;26.10;46.20
19248;DHT22;9758;48.640;8.148;2023-09-19T14:50:04;26.20;46.60
19248;DHT22;9758;48.640;8.148;2023-09-19T14:52:32;26.30;46.50
19248;DHT22;9758;48.640;8.148;2023-09-19T14:55:01;26.40;46.30
19248;DHT22;9758;48.640;8.148;2023-09-19T14:57:28;26.50;46.30
19248;DHT22;9758;48.640;8.148;2023-09-19T14:59:55;26.50;46.10
19248;DHT22;9758;48.640;8.148;2023-09-19T15:02:21;26.60;46.10
19248;DHT22;9758;48.640;8.148;2023-09-19T15:04:48;26.60;45.80
19248;DHT22;9758;48.640;8.148;2023-09-19T15:07:16;26.60;45.80
19248;DHT22;9758;48.640;8.148;2023-09-19T15:09:43;26.60;45.90
19248;DHT22;9758;48.640;8.148;2023-09-19T15:12:12;26.60;45.80
19248;DHT22;9758;48.640;8.148;2023-09-19T15:14:40;26.60;46.60
19248;DHT22;9758;48.640;8.148;2023-09-19T15:17:13;26.60;45.40
19248;DHT22;9758;48.640;8.148;2023-09-19T15:19:40;26.70;45.80
19248;DHT22;9758;48.640;8.148;2023-09-19T15:22:07;26.70;45.70
19248;DHT22;9758;48.640;8.148;2023-09-19T15:24:36;26.60;45.30
19248;DHT22;9758;48.640;8.148;2023-09-19T15:27:03;26.60;45.60
19248;DHT22;9758;48.640;8.148;2023-09-19T15:29:32;26.50;45.60
19248;DHT22;9758;48.640;8.148;2023-09-19T15:31:59;26.50;45.80
19248;DHT22;9758;48.640;8.148;2023-09-19T15:34:28;26.50;45.70
19248;DHT22;9758;48.640;8.148;2023-09-19T15:36:55;26.50;45.20
19248;DHT22;9758;48.640;8.148;2023-09-19T15:39:22;26.40;45.40
19248;DHT22;9758;48.640;8.148;2023-09-19T15:41:49;26.30;45.50
19248;DHT22;9758;48.640;8.148;2023-09-19T15:44:18;26.20;45.60
19248;DHT22;9758;48.640;8.148;2023-09-19T15:46:47;26.20;45.70
19248;DHT22;9758;48.640;8.148;2023-09-19T15:49:14;26.20;46.00
19248;DHT22;9758;48.640;8.148;2023-09-19T15:51:41;26.40;46.20
19248;DHT22;9758;48.640;8.148;2023-09-19T15:54:10;26.60;46.20
19248;DHT22;9758;48.640;8.148;2023-09-19T15:56:39;26.90;46.30
19248;DHT22;9758;48.640;8.148;2023-09-19T15:59:07;27.20;46.30
19248;DHT22;9758;48.640;8.148;2023-09-19T16:01:35;27.50;46.20
19248;DHT22;9758;48.640;8.148;2023-09-19T16:04:05;27.70;45.60
19248;DHT22;9758;48.640;8.148;2023-09-19T16:06:35;27.80;45.60
19248;DHT22;9758;48.640;8.148;2023-09-19T16:09:02;27.90;45.80
19248;DHT22;9758;48.640;8.148;2023-09-19T16:11:32;28.10;45.50
19248;DHT22;9758;48.640;8.148;2023-09-19T16:13:59;28.10;45.20